createdAt,value
2022-12-14T00:01:41.783Z,72.30
2022-12-14T00:04:11.942Z,72.30
2022-12-14T00:06:38.769Z,72.30
2022-12-14T00:09:05.819Z,72.30
2022-12-14T00:11:34.462Z,72.50
2022-12-14T00:14:03.651Z,72.40
2022-12-14T00:16:33.988Z,72.30
2022-12-14T00:19:02.032Z,72.40
2022-12-14T00:21:29.540Z,72.40
2022-12-14T00:23:59.455Z,72.70
2022-12-14T00:26:32.423Z,72.70
2022-12-14T00:29:02.047Z,73.10
2022-12-14T00:31:31.130Z,72.80
2022-12-14T00:33:58.773Z,73.00
2022-12-14T00:36:25.930Z,73.10
2022-12-14T00:38:52.878Z,73.20
2022-12-14T00:41:19.925Z,73.10
2022-12-14T00:43:49.502Z,72.90
2022-12-14T00:46:17.328Z,72.90
2022-12-14T00:48:44.250Z,72.90
2022-12-14T00:51:11.137Z,73.00
2022-12-14T00:53:38.053Z,73.10
2022-12-14T00:56:07.932Z,73.20
2022-12-14T00:58:35.267Z,73.10
2022-12-14T01:01:06.064Z,73.00
2022-12-14T01:03:34.133Z,72.90
2022-12-14T01:06:01.647Z,72.80
2022-12-14T01:08:35.337Z,72.50
2022-12-14T01:11:10.650Z,72.30
2022-12-14T01:13:39.504Z,71.60
2022-12-14T01:16:14.809Z,72.30
2022-12-14T01:18:43.911Z,72.30
2022-12-14T01:21:17.860Z,72.50
2022-12-14T01:23:46.973Z,72.70
2022-12-14T01:26:16.774Z,72.60
2022-12-14T01:28:45.915Z,72.70
2022-12-14T01:31:19.898Z,72.50
2022-12-14T01:33:48.567Z,72.50
2022-12-14T01:36:23.730Z,72.50
2022-12-14T01:38:56.787Z,72.60
2022-12-14T01:41:49.522Z,72.30
2022-12-14T01:44:16.255Z,72.10
2022-12-14T01:46:56.388Z,73.00
2022-12-14T01:49:31.624Z,72.10
2022-12-14T01:52:30.504Z,72.70
2022-12-14T01:55:06.148Z,72.40
2022-12-14T01:58:13.510Z,72.90
2022-12-14T02:00:41.158Z,71.30
2022-12-14T02:03:25.391Z,73.10
2022-12-14T02:06:00.005Z,72.00
2022-12-14T02:08:28.938Z,73.20
2022-12-14T02:10:56.722Z,73.20
2022-12-14T02:13:43.038Z,73.30
2022-12-14T02:16:10.496Z,71.20
2022-12-14T02:18:37.439Z,72.80
2022-12-14T02:21:36.710Z,72.80
2022-12-14T02:24:58.266Z,71.20
2022-12-14T02:28:14.835Z,70.80
2022-12-14T02:30:47.341Z,71.00
2022-12-14T02:33:44.924Z,72.70
2022-12-14T02:36:39.908Z,71.50
2022-12-14T02:39:49.218Z,71.10
2022-12-14T02:42:32.205Z,71.10
2022-12-14T02:45:28.142Z,72.30
2022-12-14T02:48:26.984Z,70.80
2022-12-14T02:51:02.530Z,72.30
2022-12-14T02:53:42.150Z,72.80
2022-12-14T02:56:17.506Z,72.60
2022-12-14T02:58:50.675Z,72.90
2022-12-14T03:01:24.743Z,72.60
2022-12-14T03:03:52.184Z,72.70
2022-12-14T03:06:26.212Z,73.10
2022-12-14T03:09:14.595Z,73.10
2022-12-14T03:11:52.538Z,71.70
2022-12-14T03:14:37.227Z,72.70
2022-12-14T03:17:19.478Z,72.00
2022-12-14T03:20:12.936Z,73.00
2022-12-14T03:22:50.445Z,71.20
2022-12-14T03:25:34.977Z,72.90
2022-12-14T03:28:14.371Z,72.00
2022-12-14T03:31:02.280Z,72.50
2022-12-14T03:33:31.992Z,73.00
2022-12-14T03:36:16.133Z,72.90
2022-12-14T03:38:48.584Z,72.80
2022-12-14T03:41:55.469Z,73.00
2022-12-14T03:44:33.880Z,71.50
2022-12-14T03:47:24.994Z,72.80
2022-12-14T03:50:19.695Z,71.30
2022-12-14T03:53:11.511Z,71.70
2022-12-14T03:56:04.948Z,72.10
2022-12-14T03:59:09.046Z,73.40
2022-12-14T04:02:05.983Z,71.60
2022-12-14T04:05:01.960Z,73.00
2022-12-14T04:07:58.046Z,73.20
2022-12-14T04:10:53.816Z,72.10
2022-12-14T04:13:48.991Z,73.10
2022-12-14T04:16:43.112Z,73.20
2022-12-14T04:19:20.962Z,73.10
2022-12-14T04:21:53.799Z,73.30
2022-12-14T04:25:02.717Z,73.60
2022-12-14T04:27:56.998Z,73.20
2022-12-14T04:30:24.307Z,73.10
2022-12-14T04:32:56.000Z,73.10
2022-12-14T04:35:42.012Z,73.20
2022-12-14T04:38:20.464Z,72.10
2022-12-14T04:40:55.789Z,72.80
2022-12-14T04:43:30.058Z,72.60
2022-12-14T04:46:24.677Z,72.70
2022-12-14T04:49:01.566Z,71.30
2022-12-14T04:51:44.943Z,72.60
2022-12-14T04:55:00.836Z,72.40
2022-12-14T04:57:57.738Z,73.10
2022-12-14T05:00:25.200Z,72.00
2022-12-14T05:03:28.066Z,73.30
2022-12-14T05:06:26.539Z,71.80
2022-12-14T05:09:12.440Z,71.90
2022-12-14T05:12:04.880Z,73.20
2022-12-14T05:14:46.708Z,73.20
2022-12-14T05:17:15.160Z,73.00
2022-12-14T05:19:50.695Z,73.70
2022-12-14T05:22:18.875Z,73.10
2022-12-14T05:24:45.728Z,73.70
2022-12-14T05:27:13.507Z,73.70
2022-12-14T05:29:40.432Z,73.60
2022-12-14T05:32:10.984Z,73.50
2022-12-14T05:34:37.806Z,73.20
2022-12-14T05:37:04.680Z,73.20
2022-12-14T05:39:32.048Z,73.30
2022-12-14T05:41:58.880Z,73.40
2022-12-14T05:44:25.802Z,73.60
2022-12-14T05:46:52.688Z,73.90
2022-12-14T05:49:19.773Z,74.40
2022-12-14T05:51:48.572Z,74.60
2022-12-14T05:54:15.792Z,74.80
2022-12-14T05:56:42.713Z,74.70
2022-12-14T05:59:12.661Z,74.40
2022-12-14T06:01:39.520Z,73.90
2022-12-14T06:04:06.386Z,73.80
2022-12-14T06:06:33.840Z,73.70
2022-12-14T06:09:01.167Z,73.40
2022-12-14T06:11:28.151Z,73.40
2022-12-14T06:13:54.948Z,73.40
2022-12-14T06:16:25.705Z,73.40
2022-12-14T06:18:58.913Z,73.20
2022-12-14T06:21:38.005Z,72.70
2022-12-14T06:24:06.969Z,72.80
2022-12-14T06:26:40.907Z,73.10
2022-12-14T06:29:15.747Z,73.00
2022-12-14T06:31:42.591Z,73.20
2022-12-14T06:34:10.677Z,73.40
2022-12-14T06:36:41.453Z,73.40
2022-12-14T06:39:13.560Z,73.40
2022-12-14T06:41:40.750Z,73.20
2022-12-14T06:44:13.140Z,73.30
2022-12-14T06:46:40.906Z,73.00
2022-12-14T06:49:07.818Z,73.20
2022-12-14T06:51:41.423Z,73.60
2022-12-14T06:54:12.068Z,73.80
2022-12-14T06:56:39.514Z,74.00
2022-12-14T06:59:08.704Z,72.10
2022-12-14T07:01:37.622Z,73.80
2022-12-14T07:04:07.115Z,73.70
2022-12-14T07:06:40.853Z,73.90
2022-12-14T07:09:12.579Z,73.90
2022-12-14T07:11:40.150Z,73.90
2022-12-14T07:14:07.332Z,73.80
2022-12-14T07:16:36.917Z,74.00
2022-12-14T07:19:04.871Z,74.10
2022-12-14T07:21:33.807Z,74.00
2022-12-14T07:24:01.397Z,74.20
2022-12-14T07:26:29.268Z,74.20
2022-12-14T07:29:00.509Z,74.40
2022-12-14T07:31:29.135Z,74.40
2022-12-14T07:34:00.449Z,74.50
2022-12-14T07:36:29.806Z,74.50
2022-12-14T07:38:57.746Z,74.60
2022-12-14T07:41:31.102Z,74.60
2022-12-14T07:44:00.776Z,74.70
2022-12-14T07:46:30.325Z,75.10
2022-12-14T07:48:58.599Z,75.10
2022-12-14T07:51:33.402Z,75.30
2022-12-14T07:54:02.329Z,75.00
2022-12-14T07:56:34.315Z,74.90
2022-12-14T07:59:03.836Z,74.80
2022-12-14T08:01:34.157Z,74.50
2022-12-14T08:04:13.462Z,74.50
2022-12-14T08:06:40.804Z,74.50
2022-12-14T08:09:11.413Z,74.90
2022-12-14T08:11:39.528Z,75.00
2022-12-14T08:14:13.532Z,72.60
2022-12-14T08:16:40.436Z,74.90
2022-12-14T08:19:07.479Z,75.10
2022-12-14T08:21:35.230Z,75.30
2022-12-14T08:24:02.279Z,75.50
2022-12-14T08:26:35.257Z,75.60
2022-12-14T08:29:03.382Z,75.70
2022-12-14T08:31:30.767Z,75.70
2022-12-14T08:34:02.199Z,75.60
2022-12-14T08:36:34.001Z,75.40
2022-12-14T08:39:05.687Z,75.50
2022-12-14T08:41:33.129Z,75.70
2022-12-14T08:44:03.036Z,75.80
2022-12-14T08:46:32.876Z,75.90
2022-12-14T08:49:00.073Z,75.90
2022-12-14T08:51:28.643Z,76.20
2022-12-14T08:53:57.155Z,76.20
2022-12-14T08:56:27.697Z,76.00
2022-12-14T08:58:56.159Z,75.70
2022-12-14T09:01:32.871Z,75.90
2022-12-14T09:04:07.860Z,76.50
2022-12-14T09:06:38.276Z,77.00
2022-12-14T09:09:15.688Z,77.50
2022-12-14T09:11:44.620Z,77.40
2022-12-14T09:14:11.599Z,77.50
2022-12-14T09:16:39.211Z,77.00
2022-12-14T09:19:06.221Z,77.00
2022-12-14T09:21:33.129Z,76.90
2022-12-14T09:24:00.203Z,76.60
2022-12-14T09:26:27.631Z,76.80
2022-12-14T09:28:56.821Z,77.20
2022-12-14T09:31:26.445Z,77.20
2022-12-14T09:33:54.826Z,77.10
2022-12-14T09:36:25.412Z,77.20
2022-12-14T09:38:55.349Z,77.20
2022-12-14T09:41:34.170Z,77.50
2022-12-14T09:44:28.373Z,76.40
2022-12-14T09:47:23.852Z,76.90
2022-12-14T09:50:12.336Z,76.50
2022-12-14T09:52:49.747Z,75.40
2022-12-14T09:55:42.058Z,76.70
2022-12-14T09:58:28.986Z,75.10
2022-12-14T10:01:22.201Z,75.80
2022-12-14T10:04:31.036Z,75.30
2022-12-14T10:07:53.427Z,75.80
2022-12-14T10:10:28.887Z,75.80
2022-12-14T10:13:18.750Z,77.70
2022-12-14T10:16:27.051Z,78.00
2022-12-14T10:19:18.676Z,76.00
2022-12-14T10:21:51.150Z,77.70
2022-12-14T10:24:28.635Z,78.70
2022-12-14T10:26:56.138Z,78.20
2022-12-14T10:29:40.028Z,78.50
2022-12-14T10:32:19.571Z,77.90
2022-12-14T10:34:46.743Z,77.80
2022-12-14T10:38:11.850Z,77.60
2022-12-14T10:40:49.441Z,74.50
2022-12-14T10:43:28.881Z,76.90
2022-12-14T10:46:14.467Z,77.50
2022-12-14T10:48:50.709Z,77.30
2022-12-14T10:51:49.572Z,77.30
2022-12-14T10:54:33.828Z,75.60
2022-12-14T10:57:01.345Z,76.80
2022-12-14T10:59:44.564Z,78.20
2022-12-14T11:02:29.954Z,77.90
2022-12-14T11:05:01.283Z,78.30
2022-12-14T11:07:33.955Z,78.70
2022-12-14T11:10:21.352Z,78.80
2022-12-14T11:13:17.209Z,77.10
2022-12-14T11:15:50.980Z,78.00
2022-12-14T11:18:18.004Z,79.20
2022-12-14T11:20:58.530Z,79.30
2022-12-14T11:23:37.529Z,77.70
2022-12-14T11:26:15.343Z,78.60
2022-12-14T11:28:52.208Z,78.30
2022-12-14T11:31:48.011Z,78.00
2022-12-14T11:34:41.411Z,79.20
2022-12-14T11:37:26.261Z,77.50
2022-12-14T11:40:00.031Z,78.60
2022-12-14T11:42:28.281Z,79.70
2022-12-14T11:45:15.691Z,79.40
2022-12-14T11:47:42.536Z,79.40
2022-12-14T11:50:25.216Z,79.60
2022-12-14T11:53:10.774Z,78.60
2022-12-14T11:55:43.886Z,80.40
2022-12-14T11:58:46.499Z,80.60
2022-12-14T12:01:20.382Z,79.70
2022-12-14T12:03:51.823Z,80.30
2022-12-14T12:06:25.646Z,80.00
2022-12-14T12:09:25.193Z,79.60
2022-12-14T12:11:52.430Z,78.50
2022-12-14T12:14:38.862Z,79.20
2022-12-14T12:17:40.524Z,77.40
2022-12-14T12:20:34.097Z,77.30
2022-12-14T12:23:13.167Z,77.20
2022-12-14T12:25:43.315Z,78.50
2022-12-14T12:28:34.504Z,78.60
2022-12-14T12:31:10.721Z,76.80
2022-12-14T12:33:52.835Z,78.70
2022-12-14T12:36:24.221Z,78.30
2022-12-14T12:39:24.944Z,79.40
2022-12-14T12:42:24.618Z,78.60
2022-12-14T12:45:21.493Z,78.00
2022-12-14T12:47:58.840Z,78.70
2022-12-14T12:50:36.187Z,79.50
2022-12-14T12:53:13.271Z,79.10
2022-12-14T12:55:52.197Z,79.50
2022-12-14T12:58:33.065Z,79.10
2022-12-14T13:01:12.659Z,78.70
2022-12-14T13:03:46.366Z,79.60
2022-12-14T13:06:25.095Z,79.80
2022-12-14T13:09:06.204Z,79.30
2022-12-14T13:11:39.362Z,79.40
2022-12-14T13:14:34.246Z,79.20
2022-12-14T13:17:06.685Z,78.30
2022-12-14T13:19:51.669Z,79.20
2022-12-14T13:22:30.615Z,78.70
2022-12-14T13:25:13.771Z,79.70
2022-12-14T13:28:03.983Z,80.30
2022-12-14T13:31:22.012Z,79.70
2022-12-14T13:34:15.196Z,78.70
2022-12-14T13:37:27.263Z,79.80
2022-12-14T13:40:18.202Z,79.60
2022-12-14T13:43:23.402Z,78.80
2022-12-14T13:45:51.085Z,77.10
2022-12-14T13:48:28.703Z,80.00
2022-12-14T13:51:04.927Z,79.10
2022-12-14T13:53:48.539Z,79.20
2022-12-14T13:56:33.238Z,78.10
2022-12-14T13:59:18.228Z,78.60
2022-12-14T14:01:48.193Z,79.40
2022-12-14T14:04:22.281Z,79.70
2022-12-14T14:06:55.478Z,80.00
2022-12-14T14:09:34.538Z,80.10
2022-12-14T14:12:37.373Z,79.50
2022-12-14T14:15:26.380Z,78.60
2022-12-14T14:17:55.421Z,78.90
2022-12-14T14:20:45.404Z,80.30
2022-12-14T14:23:18.032Z,79.00
2022-12-14T14:25:53.031Z,79.40
2022-12-14T14:28:28.433Z,79.10
2022-12-14T14:30:58.560Z,79.30
2022-12-14T14:33:54.602Z,79.40
2022-12-14T14:36:36.999Z,77.80
2022-12-14T14:42:27.209Z,79.30
2022-12-14T14:45:01.946Z,79.60
2022-12-14T14:47:40.659Z,79.70
2022-12-14T14:50:15.250Z,78.90
2022-12-14T14:52:42.048Z,80.40
2022-12-14T14:55:52.773Z,80.10
2022-12-14T14:58:27.112Z,78.50
2022-12-14T15:01:25.284Z,80.00
2022-12-14T15:04:02.506Z,78.80
2022-12-14T15:06:54.286Z,79.90
2022-12-14T15:09:40.095Z,78.80
2022-12-14T15:12:45.580Z,80.10
2022-12-14T15:15:28.375Z,79.00
2022-12-14T15:18:14.384Z,79.90
2022-12-14T15:20:41.730Z,80.50
2022-12-14T15:23:14.439Z,80.00
2022-12-14T15:25:41.497Z,80.40
2022-12-14T15:28:13.201Z,80.40
2022-12-14T15:30:47.983Z,80.60
2022-12-14T15:33:35.673Z,80.50
2022-12-14T15:36:29.475Z,80.50
2022-12-14T15:38:58.403Z,80.60
2022-12-14T15:41:29.374Z,81.20
2022-12-14T15:43:59.949Z,81.40
2022-12-14T15:46:33.276Z,81.60
2022-12-14T15:49:03.966Z,81.80
2022-12-14T15:51:41.990Z,82.20
2022-12-14T15:54:19.772Z,81.90
2022-12-14T15:56:55.828Z,82.20
2022-12-14T15:59:33.306Z,82.40
2022-12-14T16:02:28.097Z,82.60
2022-12-14T16:04:58.404Z,82.60
2022-12-14T16:07:39.180Z,82.60
2022-12-14T16:10:33.438Z,81.80
2022-12-14T16:13:31.674Z,81.60
2022-12-14T16:16:06.984Z,82.10
2022-12-14T16:18:34.565Z,82.40
2022-12-14T16:21:04.035Z,82.30
2022-12-14T16:23:43.429Z,82.10
2022-12-14T16:26:15.213Z,81.80
2022-12-14T16:28:42.309Z,81.80
2022-12-14T16:31:18.617Z,82.00
2022-12-14T16:33:50.417Z,82.00
2022-12-14T16:36:25.636Z,82.20
2022-12-14T16:38:59.563Z,81.80
2022-12-14T16:41:50.852Z,82.30
2022-12-14T16:44:44.427Z,81.50
2022-12-14T16:47:17.035Z,80.80
2022-12-14T16:49:50.664Z,82.10
2022-12-14T16:52:30.472Z,81.90
2022-12-14T16:55:14.939Z,82.30
2022-12-14T16:58:02.379Z,81.10
2022-12-14T17:00:37.977Z,80.80
2022-12-14T17:03:25.614Z,81.70
2022-12-14T17:05:58.718Z,81.10
2022-12-14T17:08:25.804Z,82.20
2022-12-14T17:10:52.852Z,81.90
2022-12-14T17:13:19.767Z,82.00
2022-12-14T17:16:21.023Z,82.00
2022-12-14T17:18:49.623Z,80.40
2022-12-14T17:21:28.044Z,81.80
2022-12-14T17:23:56.480Z,81.90
2022-12-14T17:26:28.470Z,82.00
2022-12-14T17:28:55.748Z,82.00
2022-12-14T17:31:27.084Z,82.00
2022-12-14T17:33:56.398Z,81.90
2022-12-14T17:36:24.382Z,81.80
2022-12-14T17:38:51.360Z,81.90
2022-12-14T17:41:25.951Z,81.80
2022-12-14T17:43:57.634Z,81.60
2022-12-14T17:46:26.022Z,81.60
2022-12-14T17:48:53.543Z,81.90
2022-12-14T17:51:29.531Z,81.90
2022-12-14T17:53:59.012Z,81.60
2022-12-14T17:56:26.155Z,81.90
2022-12-14T17:58:53.118Z,82.10
2022-12-14T18:01:24.909Z,82.20
2022-12-14T18:03:52.561Z,82.10
2022-12-14T18:06:19.979Z,82.00
2022-12-14T18:08:48.855Z,82.10
2022-12-14T18:11:22.180Z,82.30
2022-12-14T18:13:49.661Z,82.30
2022-12-14T18:16:21.004Z,82.20
2022-12-14T18:18:49.145Z,82.10
2022-12-14T18:21:23.184Z,82.30
2022-12-14T18:23:51.372Z,82.20
2022-12-14T18:26:20.952Z,82.40
2022-12-14T18:28:54.550Z,82.60
2022-12-14T18:31:30.345Z,82.40
2022-12-14T18:33:59.672Z,82.70
2022-12-14T18:36:26.607Z,82.80
2022-12-14T18:38:53.777Z,82.80
2022-12-14T18:41:24.236Z,82.80
2022-12-14T18:43:51.787Z,82.70
2022-12-14T18:46:18.900Z,82.60
2022-12-14T18:48:46.228Z,82.60
2022-12-14T18:51:23.627Z,82.60
2022-12-14T18:53:52.491Z,82.60
2022-12-14T18:56:22.264Z,82.50
2022-12-14T18:58:50.274Z,82.50
2022-12-14T19:01:21.584Z,82.30
2022-12-14T19:03:48.794Z,82.10
2022-12-14T19:06:43.459Z,82.10
2022-12-14T19:09:06.394Z,81.90
2022-12-14T19:11:38.891Z,81.80
2022-12-14T19:14:05.805Z,81.80
2022-12-14T19:16:32.877Z,81.80
2022-12-14T19:19:00.710Z,81.70
2022-12-14T19:21:29.465Z,81.50
2022-12-14T19:23:56.771Z,81.40
2022-12-14T19:26:23.851Z,81.30
2022-12-14T19:28:50.776Z,81.30
2022-12-14T19:31:17.776Z,81.30
2022-12-14T19:33:44.712Z,81.40
2022-12-14T19:36:12.040Z,81.40
2022-12-14T19:38:38.937Z,81.60
2022-12-14T19:41:12.386Z,81.40
2022-12-14T19:43:39.696Z,80.90
2022-12-14T19:46:09.605Z,81.00
2022-12-14T19:48:37.774Z,81.10
2022-12-14T19:51:11.776Z,81.10
2022-12-14T19:53:40.927Z,81.00
2022-12-14T19:56:08.499Z,81.30
2022-12-14T19:58:35.831Z,81.50
2022-12-14T20:01:09.239Z,81.60
2022-12-14T20:03:37.402Z,81.60
2022-12-14T20:06:06.820Z,81.80
2022-12-14T20:08:34.939Z,81.80
2022-12-14T20:11:07.942Z,82.10
2022-12-14T20:13:35.368Z,81.90
2022-12-14T20:16:02.581Z,82.00
2022-12-14T20:18:31.551Z,81.90
2022-12-14T20:21:08.883Z,81.80
2022-12-14T20:23:38.104Z,81.40
2022-12-14T20:26:14.935Z,81.70
2022-12-14T20:28:41.932Z,81.60
2022-12-14T20:31:10.725Z,81.60
2022-12-14T20:33:38.791Z,81.40
2022-12-14T20:36:06.563Z,81.30
2022-12-14T20:38:33.794Z,81.40
2022-12-14T20:41:18.654Z,81.50
2022-12-14T20:43:45.770Z,81.00
2022-12-14T20:46:32.474Z,81.70
2022-12-14T20:49:03.550Z,81.00
2022-12-14T20:51:34.290Z,81.90
2022-12-14T20:54:01.990Z,82.00
2022-12-14T20:56:29.161Z,80.10
2022-12-14T20:58:57.058Z,81.80
2022-12-14T21:01:26.190Z,81.80
2022-12-14T21:03:54.008Z,81.60
2022-12-14T21:06:23.275Z,81.60
2022-12-14T21:09:09.307Z,81.50
2022-12-14T21:11:59.156Z,81.70
2022-12-14T21:14:31.061Z,81.40
2022-12-14T21:16:58.568Z,81.50
2022-12-14T21:19:26.214Z,81.20
2022-12-14T21:21:54.209Z,81.40
2022-12-14T21:25:00.857Z,81.40
2022-12-14T21:27:21.484Z,81.40
2022-12-14T21:29:49.399Z,81.10
2022-12-14T21:32:18.185Z,81.50
2022-12-14T21:34:46.202Z,81.50
2022-12-14T21:37:14.496Z,81.40
2022-12-14T21:39:41.715Z,81.60
2022-12-14T21:42:10.443Z,81.90
2022-12-14T21:44:38.244Z,82.00
2022-12-14T21:47:08.938Z,82.10
2022-12-14T21:49:38.245Z,82.10
2022-12-14T21:52:07.712Z,82.00
2022-12-14T21:54:35.333Z,82.20
2022-12-14T21:57:20.573Z,82.40
2022-12-14T21:59:47.553Z,82.40
2022-12-14T22:02:24.666Z,82.40
2022-12-14T22:04:56.000Z,81.90
2022-12-14T22:07:28.714Z,82.00
2022-12-14T22:09:55.566Z,81.80
2022-12-14T22:12:22.533Z,81.70
2022-12-14T22:14:50.132Z,81.60
2022-12-14T22:17:17.397Z,81.80
2022-12-14T22:19:44.282Z,81.70
2022-12-14T22:22:17.357Z,81.50
2022-12-14T22:24:45.079Z,80.80
2022-12-14T22:27:13.195Z,81.30
2022-12-14T22:29:40.324Z,81.40
2022-12-14T22:32:08.410Z,81.50
2022-12-14T22:34:35.417Z,81.60
2022-12-14T22:37:02.223Z,81.80
2022-12-14T22:39:29.381Z,81.90
2022-12-14T22:41:56.604Z,82.10
2022-12-14T22:44:23.484Z,82.00
2022-12-14T22:46:50.375Z,81.90
2022-12-14T22:49:19.200Z,81.80
2022-12-14T22:51:46.222Z,81.70
2022-12-14T22:54:25.846Z,81.60
2022-12-14T22:57:02.294Z,81.40
2022-12-14T22:59:55.920Z,81.40
2022-12-14T23:02:24.007Z,80.20
2022-12-14T23:04:51.155Z,81.50
2022-12-14T23:07:18.564Z,81.30
2022-12-14T23:10:04.188Z,81.10
2022-12-14T23:12:49.426Z,81.10
2022-12-14T23:15:34.962Z,80.90
2022-12-14T23:18:25.910Z,81.00
2022-12-14T23:21:11.598Z,81.10
2022-12-14T23:24:03.525Z,78.90
2022-12-14T23:26:49.938Z,80.80
2022-12-14T23:29:35.391Z,81.60
2022-12-14T23:32:20.885Z,81.20
2022-12-14T23:35:06.445Z,81.20
2022-12-14T23:37:52.098Z,81.30
2022-12-14T23:40:38.188Z,81.30
2022-12-14T23:43:32.592Z,81.20
2022-12-14T23:46:18.964Z,80.90
2022-12-14T23:49:05.826Z,81.30
2022-12-14T23:51:53.758Z,81.40
2022-12-14T23:54:39.267Z,81.20
2022-12-14T23:57:26.070Z,81.00
